Time;durP1;ratioP1;P1;durP2;ratioP2;P2;SDS_P1;SDS_P2;PMS_P1;PMS_P2;Temp;Humidity;BMP_temperature;BMP_pressure;BME280_temperature;BME280_humidity;BME280_pressure;Samples;Min_cycle;Max_cycle;Signal;HPM_P1;HPM_P2
2023/05/12 05:06:02;;;;;;;;;3.25;3.25;;;;;;;;4798170;22;32704;-73
2023/05/12 05:08:27;;;;;;;;;2.25;1.75;;;;;;;;6251150;22;32085;-77
2023/05/12 05:10:53;;;;;;;;;2.25;2.25;;;;;;;;6254647;22;31124;-78
2023/05/12 05:13:18;;;;;;;;;4.75;3.25;;;;;;;;6255306;22;31227;-77
2023/05/12 05:15:50;;;;;;;;;3.00;3.00;;;;;;;;6254707;22;30963;-71
2023/05/12 05:18:15;;;;;;;;;4.00;2.25;;;;;;;;6254402;22;30939;-73
2023/05/12 05:20:41;;;;;;;;;5.75;5.25;;;;;;;;6254645;22;31125;-73
2023/05/12 05:23:06;;;;;;;;;4.00;4.00;;;;;;;;6253783;22;31435;-75
2023/05/12 05:25:31;;;;;;;;;4.25;3.25;;;;;;;;6253971;22;31094;-75
2023/05/12 05:27:57;;;;;;;;;7.75;3.75;;;;;;;;6254624;22;31522;-74
2023/05/12 05:30:22;;;;;;;;;5.25;4.00;;;;;;;;6256998;22;31132;-72
2023/05/12 05:32:47;;;;;;;;;4.50;3.50;;;;;;;;6258162;22;31528;-71
2023/05/12 05:35:12;;;;;;;;;4.50;3.25;;;;;;;;6258528;22;31068;-72
2023/05/12 05:37:38;;;;;;;;;4.50;3.75;;;;;;;;6257807;22;31648;-73
2023/05/12 05:40:03;;;;;;;;;3.25;2.50;;;;;;;;6257990;22;31052;-82
2023/05/12 05:42:29;;;;;;;;;3.75;3.50;;;;;;;;6257929;22;31029;-73
2023/05/12 05:44:54;;;;;;;;;3.50;2.00;;;;;;;;6258108;22;31244;-73
2023/05/12 05:47:20;;;;;;;;;2.50;2.50;;;;;;;;6258065;22;31524;-68
2023/05/12 05:49:45;;;;;;;;;5.50;5.50;;;;;;;;6258132;22;31181;-72
2023/05/12 05:52:10;;;;;;;;;5.00;5.00;;;;;;;;6257425;22;31220;-72
2023/05/12 05:54:35;;;;;;;;;6.25;2.75;;;;;;;;6257333;22;30991;-73
2023/05/12 05:57:01;;;;;;;;;5.00;3.50;;;;;;;;6257482;22;31119;-71
2023/05/12 05:59:27;;;;;;;;;5.00;4.00;;;;;;;;6257105;22;31315;-72
2023/05/12 06:01:52;;;;;;;;;5.75;4.75;;;;;;;;6257101;22;30963;-72
2023/05/12 06:04:17;;;;;;;;;3.75;3.75;;;;;;;;6258010;22;30955;-73
2023/05/12 06:06:43;;;;;;;;;3.75;3.75;;;;;;;;6257493;22;30970;-72
2023/05/12 06:09:11;;;;;;;;;3.50;3.00;;;;;;;;6256677;22;31058;-72
2023/05/12 06:11:36;;;;;;;;;4.75;4.75;;;;;;;;6246943;22;31535;-72
2023/05/12 06:14:01;;;;;;;;;3.00;2.00;;;;;;;;6257871;22;31058;-73
2023/05/12 06:16:26;;;;;;;;;2.50;2.50;;;;;;;;6257477;22;31973;-72
2023/05/12 06:18:51;;;;;;;;;5.00;4.75;;;;;;;;6257857;22;31238;-71
2023/05/12 06:21:16;;;;;;;;;2.40;2.40;;;;;;;;6257544;22;30998;-70
2023/05/12 06:23:42;;;;;;;;;4.00;4.00;;;;;;;;6230372;22;31085;-71
2023/05/12 06:26:08;;;;;;;;;2.00;2.00;;;;;;;;6257834;22;31732;-71
2023/05/12 06:28:33;;;;;;;;;5.00;3.00;;;;;;;;6257005;22;31122;-71
2023/05/12 06:30:58;;;;;;;;;7.50;3.50;;;;;;;;6257037;22;31004;-71
2023/05/12 06:33:23;;;;;;;;;3.00;3.00;;;;;;;;6256717;22;31355;-72
2023/05/12 06:35:49;;;;;;;;;2.50;2.50;;;;;;;;6256949;22;31732;-71
2023/05/12 06:38:14;;;;;;;;;2.75;2.75;;;;;;;;6229360;22;31276;-71
2023/05/12 06:40:39;;;;;;;;;5.25;3.75;;;;;;;;6256039;22;30991;-72
2023/05/12 06:43:04;;;;;;;;;3.00;3.00;;;;;;;;6254972;22;31547;-71
2023/05/12 06:45:30;;;;;;;;;5.50;3.25;;;;;;;;6254847;22;32426;-71
2023/05/12 06:47:56;;;;;;;;;3.25;3.00;;;;;;;;6255570;22;31197;-71
2023/05/12 06:50:21;;;;;;;;;5.00;4.00;;;;;;;;6254851;22;31250;-71
2023/05/12 06:52:46;;;;;;;;;3.00;3.00;;;;;;;;6227105;22;31403;-71
2023/05/12 06:55:12;;;;;;;;;8.75;3.00;;;;;;;;6254618;22;31641;-71
2023/05/12 06:57:37;;;;;;;;;4.75;3.25;;;;;;;;6254934;22;31013;-72
2023/05/12 07:00:03;;;;;;;;;4.25;3.75;;;;;;;;6255274;22;31086;-72
2023/05/12 07:02:29;;;;;;;;;4.50;4.00;;;;;;;;6254934;22;31240;-71
2023/05/12 07:04:54;;;;;;;;;5.00;3.00;;;;;;;;6253916;22;31764;-71
2023/05/12 07:07:20;;;;;;;;;5.00;3.50;;;;;;;;6254317;22;31060;-71
2023/05/12 07:09:45;;;;;;;;;3.50;3.50;;;;;;;;6254754;22;31115;-71
2023/05/12 07:12:10;;;;;;;;;3.50;2.75;;;;;;;;6254510;22;31002;-71
2023/05/12 07:14:36;;;;;;;;;6.00;4.00;;;;;;;;6226601;22;31756;-72
2023/05/12 07:17:01;;;;;;;;;5.50;3.00;;;;;;;;6255081;22;30991;-72
2023/05/12 07:19:26;;;;;;;;;3.75;3.75;;;;;;;;6254693;22;31088;-73
2023/05/12 07:21:52;;;;;;;;;4.25;3.25;;;;;;;;6255042;22;31276;-73
2023/05/12 07:24:17;;;;;;;;;5.25;4.00;;;;;;;;6254475;22;31080;-73
2023/05/12 07:26:43;;;;;;;;;6.00;3.25;;;;;;;;6255371;22;31042;-72
2023/05/12 07:29:09;;;;;;;;;3.00;3.00;;;;;;;;6254289;22;31019;-72
2023/05/12 07:31:35;;;;;;;;;6.00;3.25;;;;;;;;6254719;22;31462;-74
2023/05/12 07:34:00;;;;;;;;;3.00;3.00;;;;;;;;6253748;22;31828;-73
2023/05/12 07:36:27;;;;;;;;;5.75;4.75;;;;;;;;6253975;22;31095;-72
2023/05/12 07:38:52;;;;;;;;;7.25;4.50;;;;;;;;6226945;22;31031;-73
2023/05/12 07:41:17;;;;;;;;;4.00;4.00;;;;;;;;6254869;22;30935;-72
2023/05/12 07:43:42;;;;;;;;;6.25;4.75;;;;;;;;6253962;22;31686;-72
2023/05/12 07:46:09;;;;;;;;;8.25;5.50;;;;;;;;6253898;22;31110;-72
2023/05/12 07:48:38;;;;;;;;;4.50;4.00;;;;;;;;6254305;22;30991;-73
2023/05/12 07:51:03;;;;;;;;;6.50;4.00;;;;;;;;6254384;22;31264;-73
2023/05/12 07:53:29;;;;;;;;;3.75;2.75;;;;;;;;6253824;22;31886;-73
2023/05/12 07:55:54;;;;;;;;;7.50;5.50;;;;;;;;6254734;22;31075;-73
2023/05/12 07:58:19;;;;;;;;;3.00;3.00;;;;;;;;6254696;22;31408;-72
2023/05/12 08:00:44;;;;;;;;;8.25;5.25;;;;;;;;6254502;22;31034;-73
2023/05/12 08:03:09;;;;;;;;;6.00;4.00;;;;;;;;6254368;22;31207;-72
2023/05/12 08:05:34;;;;;;;;;5.25;3.75;;;;;;;;6254992;22;31010;-73
2023/05/12 08:08:00;;;;;;;;;4.75;4.25;;;;;;;;6254755;22;31050;-73
2023/05/12 08:10:28;;;;;;;;;5.25;4.75;;;;;;;;6253678;22;31639;-72
2023/05/12 08:12:53;;;;;;;;;4.50;3.75;;;;;;;;6254130;22;32797;-72
2023/05/12 08:15:18;;;;;;;;;5.25;5.00;;;;;;;;6253745;22;31287;-72
2023/05/12 08:17:44;;;;;;;;;4.75;4.75;;;;;;;;6254649;22;31044;-72
2023/05/12 08:20:09;;;;;;;;;8.00;7.50;;;;;;;;6251685;22;31011;-73
2023/05/12 08:22:35;;;;;;;;;5.00;4.00;;;;;;;;6253621;22;31593;-73
2023/05/12 08:25:00;;;;;;;;;5.25;4.75;;;;;;;;6254504;22;30974;-73
2023/05/12 08:27:25;;;;;;;;;7.50;3.75;;;;;;;;6254476;22;31659;-73
2023/05/12 08:29:50;;;;;;;;;4.50;4.50;;;;;;;;6254377;22;31041;-73
2023/05/12 08:32:15;;;;;;;;;7.00;6.00;;;;;;;;6254553;22;31160;-74
2023/05/12 08:34:40;;;;;;;;;4.25;4.25;;;;;;;;6254101;22;31026;-75
2023/05/12 08:37:06;;;;;;;;;7.00;6.50;;;;;;;;6254264;22;31029;-74
2023/05/12 08:39:32;;;;;;;;;6.50;5.25;;;;;;;;6254864;22;30963;-73
2023/05/12 08:42:13;;;;;;;;;6.75;6.75;;;;;;;;6226646;22;31496;-73
2023/05/12 08:44:39;;;;;;;;;5.25;5.25;;;;;;;;6253620;22;31098;-73
2023/05/12 08:47:04;;;;;;;;;6.25;6.25;;;;;;;;6253837;22;31387;-73
2023/05/12 08:49:31;;;;;;;;;6.75;6.00;;;;;;;;6254263;22;31022;-73
2023/05/12 08:51:58;;;;;;;;;8.50;8.50;;;;;;;;6253731;22;31409;-73
2023/05/12 08:54:25;;;;;;;;;9.25;9.25;;;;;;;;6253763;22;31448;-73
2023/05/12 08:56:50;;;;;;;;;11.25;9.25;;;;;;;;6253729;22;31171;-72
2023/05/12 08:59:16;;;;;;;;;13.25;8.75;;;;;;;;6253785;22;31014;-73
2023/05/12 09:01:41;;;;;;;;;5.50;5.50;;;;;;;;6252333;22;31140;-74
2023/05/12 09:04:07;;;;;;;;;12.25;10.25;;;;;;;;6250778;22;30947;-74
2023/05/12 09:06:32;;;;;;;;;16.00;13.25;;;;;;;;6253188;22;30932;-73
2023/05/12 09:08:58;;;;;;;;;15.00;14.25;;;;;;;;6254359;22;30928;-73
2023/05/12 09:11:23;;;;;;;;;12.00;11.75;;;;;;;;6252641;22;31772;-74
2023/05/12 09:13:59;;;;;;;;;12.25;11.50;;;;;;;;6253214;22;31077;-73
2023/05/12 09:16:26;;;;;;;;;15.75;14.00;;;;;;;;6254536;22;30988;-74
2023/05/12 09:18:51;;;;;;;;;16.00;15.00;;;;;;;;6254078;22;31380;-74
2023/05/12 09:21:17;;;;;;;;;23.00;17.25;;;;;;;;6253494;22;31695;-74
2023/05/12 09:23:51;;;;;;;;;15.00;14.00;;;;;;;;6253519;22;31553;-73
2023/05/12 09:26:16;;;;;;;;;13.00;12.75;;;;;;;;6253901;22;31145;-75
2023/05/12 09:28:42;;;;;;;;;9.00;9.00;;;;;;;;6253547;22;31094;-74
2023/05/12 09:31:14;;;;;;;;;17.25;16.00;;;;;;;;6253299;22;31133;-73
2023/05/12 09:33:39;;;;;;;;;20.00;14.00;;;;;;;;6253611;22;31050;-74
2023/05/12 09:36:05;;;;;;;;;15.00;14.25;;;;;;;;6225565;22;31115;-74
2023/05/12 09:38:30;;;;;;;;;5.50;5.50;;;;;;;;6253116;22;31408;-74
2023/05/12 09:40:55;;;;;;;;;15.25;15.25;;;;;;;;6252957;22;31263;-72
2023/05/12 09:43:20;;;;;;;;;18.75;15.75;;;;;;;;6253974;22;31058;-72
2023/05/12 09:45:48;;;;;;;;;11.75;11.75;;;;;;;;6253808;22;31205;-73
2023/05/12 09:48:14;;;;;;;;;15.25;13.25;;;;;;;;6253777;22;31175;-72
2023/05/12 09:50:43;;;;;;;;;10.00;10.00;;;;;;;;6251658;22;31120;-73
2023/05/12 09:53:09;;;;;;;;;11.50;8.50;;;;;;;;6252475;22;31082;-73
2023/05/12 09:55:34;;;;;;;;;7.75;7.75;;;;;;;;6252032;22;31090;-73
2023/05/12 09:58:01;;;;;;;;;10.25;9.25;;;;;;;;6253278;22;30967;-73
2023/05/12 10:00:26;;;;;;;;;12.25;9.00;;;;;;;;6253514;22;31678;-73
2023/05/12 10:02:52;;;;;;;;;8.50;8.00;;;;;;;;6253405;22;30975;-72
2023/05/12 10:05:19;;;;;;;;;7.25;7.25;;;;;;;;6253165;22;31185;-72
2023/05/12 10:07:46;;;;;;;;;4.25;4.25;;;;;;;;6253237;22;31081;-71
2023/05/12 10:10:13;;;;;;;;;4.75;4.00;;;;;;;;6252452;22;31849;-72
2023/05/12 10:12:40;;;;;;;;;8.00;7.00;;;;;;;;6252083;22;31014;-73
2023/05/12 10:15:07;;;;;;;;;3.50;3.50;;;;;;;;6253344;22;31176;-73
2023/05/12 10:17:33;;;;;;;;;6.75;6.75;;;;;;;;6254620;22;31512;-73
2023/05/12 10:20:00;;;;;;;;;8.00;7.00;;;;;;;;6253981;22;31042;-72
2023/05/12 10:22:25;;;;;;;;;6.25;4.75;;;;;;;;6254495;22;31229;-71
2023/05/12 10:24:50;;;;;;;;;6.25;5.25;;;;;;;;6254053;22;31113;-73
2023/05/12 10:27:17;;;;;;;;;8.00;7.50;;;;;;;;6225840;22;31595;-72
2023/05/12 10:29:42;;;;;;;;;7.25;7.25;;;;;;;;6254735;22;31118;-71
2023/05/12 10:32:08;;;;;;;;;2.75;2.75;;;;;;;;6253751;22;31166;-70
2023/05/12 10:34:35;;;;;;;;;7.25;6.00;;;;;;;;6254114;22;31094;-81
2023/05/12 10:37:03;;;;;;;;;4.25;4.25;;;;;;;;6255222;22;31216;-71
2023/05/12 10:39:28;;;;;;;;;5.50;5.00;;;;;;;;6253791;22;31797;-71
2023/05/12 10:42:01;;;;;;;;;5.75;4.25;;;;;;;;6225339;22;31509;-71
2023/05/12 10:44:27;;;;;;;;;4.50;3.75;;;;;;;;6253434;22;31573;-70
2023/05/12 10:46:58;;;;;;;;;4.00;4.00;;;;;;;;6253046;22;31320;-70
2023/05/12 10:49:40;;;;;;;;;3.00;3.00;;;;;;;;6253367;22;31902;-70
2023/05/12 10:52:06;;;;;;;;;6.25;5.25;;;;;;;;6253433;22;31136;-70
2023/05/12 10:54:36;;;;;;;;;8.25;7.00;;;;;;;;6252836;22;31012;-69
2023/05/12 10:57:01;;;;;;;;;7.00;6.00;;;;;;;;6253620;22;30928;-69
2023/05/12 10:59:27;;;;;;;;;6.00;5.75;;;;;;;;6253165;22;31654;-68
2023/05/12 11:01:56;;;;;;;;;4.50;4.50;;;;;;;;6253784;22;31349;-69
2023/05/12 11:04:21;;;;;;;;;4.00;4.00;;;;;;;;6253040;22;31129;-68
2023/05/12 11:06:56;;;;;;;;;4.00;4.00;;;;;;;;6253337;22;31467;-69
2023/05/12 11:09:21;;;;;;;;;5.25;4.00;;;;;;;;6253374;22;31055;-68
2023/05/12 11:11:46;;;;;;;;;6.00;4.75;;;;;;;;6253893;22;31075;-69
2023/05/12 11:14:12;;;;;;;;;8.00;6.00;;;;;;;;6253566;22;31139;-70
2023/05/12 11:16:41;;;;;;;;;6.75;6.75;;;;;;;;6252943;22;31466;-70
2023/05/12 11:19:06;;;;;;;;;4.00;4.00;;;;;;;;6253135;22;31864;-72
2023/05/12 11:21:32;;;;;;;;;5.00;3.75;;;;;;;;6252928;22;31019;-72
2023/05/12 11:23:59;;;;;;;;;5.75;4.00;;;;;;;;6252714;22;31163;-73
2023/05/12 11:26:24;;;;;;;;;3.75;3.75;;;;;;;;6253650;22;31086;-73
2023/05/12 11:28:49;;;;;;;;;6.00;4.00;;;;;;;;6252402;22;31711;-73
2023/05/12 11:31:19;;;;;;;;;5.50;4.50;;;;;;;;6253324;22;31337;-73
2023/05/12 11:33:44;;;;;;;;;5.00;4.00;;;;;;;;6252841;22;31259;-73
2023/05/12 11:36:09;;;;;;;;;3.00;3.00;;;;;;;;6252886;22;31320;-73
2023/05/12 11:38:34;;;;;;;;;3.00;3.00;;;;;;;;6252445;22;30978;-73
2023/05/12 11:41:00;;;;;;;;;5.00;4.00;;;;;;;;6225840;22;31157;-73
2023/05/12 11:43:26;;;;;;;;;6.00;6.00;;;;;;;;6253903;22;31197;-70
2023/05/12 11:45:54;;;;;;;;;2.75;2.75;;;;;;;;6252723;22;31289;-70
2023/05/12 11:48:20;;;;;;;;;5.50;4.00;;;;;;;;6252968;22;32161;-68
2023/05/12 11:50:46;;;;;;;;;1.50;1.50;;;;;;;;6253336;22;31179;-69
2023/05/12 11:53:13;;;;;;;;;5.50;5.00;;;;;;;;6251588;22;31480;-68
2023/05/12 11:55:52;;;;;;;;;3.00;3.00;;;;;;;;6254751;22;30943;-68
2023/05/12 11:58:19;;;;;;;;;6.00;3.00;;;;;;;;6254459;22;31058;-71
2023/05/12 12:00:45;;;;;;;;;4.25;4.25;;;;;;;;6254683;22;31499;-71
2023/05/12 12:03:11;;;;;;;;;3.50;3.25;;;;;;;;6254739;22;30967;-71
2023/05/12 12:05:37;;;;;;;;;7.25;7.25;;;;;;;;6254778;22;31403;-69
2023/05/12 12:08:07;;;;;;;;;6.75;5.50;;;;;;;;6253358;22;31853;-69
2023/05/12 12:10:32;;;;;;;;;5.00;4.00;;;;;;;;6254435;22;31084;-68
2023/05/12 12:12:58;;;;;;;;;6.00;5.50;;;;;;;;6254634;22;31058;-68
2023/05/12 12:15:24;;;;;;;;;5.50;5.50;;;;;;;;6253541;22;31407;-69
2023/05/12 12:17:49;;;;;;;;;7.25;6.50;;;;;;;;6254108;22;32742;-73
2023/05/12 12:20:16;;;;;;;;;9.75;5.75;;;;;;;;6254185;22;31437;-78
2023/05/12 12:22:41;;;;;;;;;6.00;4.50;;;;;;;;6254064;22;31066;-77
2023/05/12 12:25:07;;;;;;;;;5.25;4.50;;;;;;;;6255173;22;31017;-76
2023/05/12 12:27:32;;;;;;;;;9.25;8.25;;;;;;;;6254316;22;31082;-74
2023/05/12 12:29:57;;;;;;;;;7.00;5.00;;;;;;;;6254358;22;31003;-72
2023/05/12 12:32:23;;;;;;;;;4.75;4.25;;;;;;;;6253697;22;31045;-71
2023/05/12 12:34:48;;;;;;;;;4.50;4.50;;;;;;;;6224214;22;31351;-70
2023/05/12 12:37:13;;;;;;;;;6.00;4.00;;;;;;;;6253125;22;32110;-71
2023/05/12 12:39:38;;;;;;;;;7.25;5.25;;;;;;;;6253501;22;31116;-71
2023/05/12 12:42:04;;;;;;;;;4.50;4.50;;;;;;;;6226121;22;31124;-71
2023/05/12 12:44:29;;;;;;;;;6.00;6.00;;;;;;;;6253822;22;31424;-71
2023/05/12 12:46:54;;;;;;;;;6.00;5.25;;;;;;;;6252922;22;31559;-71
2023/05/12 12:49:20;;;;;;;;;6.75;6.75;;;;;;;;6253833;22;31033;-71
2023/05/12 12:51:46;;;;;;;;;6.25;6.25;;;;;;;;6252067;22;31018;-73
2023/05/12 12:54:11;;;;;;;;;8.00;7.00;;;;;;;;6225133;22;31758;-73
2023/05/12 12:56:36;;;;;;;;;6.75;6.50;;;;;;;;6225188;22;33080;-73
2023/05/12 12:59:01;;;;;;;;;6.75;6.75;;;;;;;;6252422;22;31118;-73
2023/05/12 13:01:27;;;;;;;;;7.00;5.25;;;;;;;;6250920;22;31143;-72
2023/05/12 13:03:52;;;;;;;;;8.50;6.25;;;;;;;;6251840;22;31149;-72
2023/05/12 13:06:17;;;;;;;;;4.75;4.75;;;;;;;;6252463;22;32732;-73
2023/05/12 13:08:43;;;;;;;;;8.75;8.25;;;;;;;;6252399;22;31187;-71
2023/05/12 13:11:08;;;;;;;;;6.50;6.50;;;;;;;;6252673;22;31050;-71
2023/05/12 13:13:34;;;;;;;;;4.75;4.75;;;;;;;;6253062;22;31097;-72
2023/05/12 13:15:59;;;;;;;;;5.00;5.00;;;;;;;;6253230;22;31572;-73
2023/05/12 13:18:24;;;;;;;;;4.00;4.00;;;;;;;;6253142;22;31207;-73
2023/05/12 13:20:50;;;;;;;;;4.25;4.25;;;;;;;;6225335;22;31105;-73
2023/05/12 13:23:15;;;;;;;;;4.75;3.25;;;;;;;;6252207;22;31303;-73
2023/05/12 13:25:43;;;;;;;;;4.75;4.75;;;;;;;;6252179;22;31070;-73
2023/05/12 13:28:09;;;;;;;;;3.75;3.00;;;;;;;;6252258;22;31242;-71
2023/05/12 13:30:34;;;;;;;;;2.00;2.00;;;;;;;;6251329;22;31530;-73
2023/05/12 13:32:59;;;;;;;;;3.25;3.00;;;;;;;;6252473;22;31650;-72
2023/05/12 13:35:24;;;;;;;;;5.00;3.25;;;;;;;;6251195;22;32180;-72
2023/05/12 13:37:50;;;;;;;;;3.00;3.00;;;;;;;;6251743;22;31358;-73
2023/05/12 13:40:15;;;;;;;;;4.00;3.00;;;;;;;;6251596;22;30991;-72
2023/05/12 13:42:40;;;;;;;;;3.50;2.25;;;;;;;;6253146;22;31018;-73
2023/05/12 13:45:05;;;;;;;;;2.00;2.00;;;;;;;;6252136;22;31659;-73
2023/05/12 13:47:31;;;;;;;;;3.00;3.00;;;;;;;;6251369;22;31180;-71
2023/05/12 13:49:56;;;;;;;;;3.75;3.25;;;;;;;;6253124;22;31102;-72
2023/05/12 13:52:21;;;;;;;;;5.00;3.25;;;;;;;;6255952;22;30920;-73
2023/05/12 13:54:46;;;;;;;;;3.00;2.00;;;;;;;;6255361;22;31839;-73
2023/05/12 13:57:11;;;;;;;;;4.50;3.00;;;;;;;;6255501;22;31118;-73
2023/05/12 13:59:37;;;;;;;;;4.00;4.00;;;;;;;;6255427;22;31004;-71
2023/05/12 14:02:02;;;;;;;;;2.00;2.00;;;;;;;;6254862;22;31275;-73
2023/05/12 14:04:27;;;;;;;;;3.75;2.50;;;;;;;;6254312;22;31668;-72
2023/05/12 14:06:53;;;;;;;;;4.25;4.25;;;;;;;;6254794;22;31011;-73
2023/05/12 14:09:18;;;;;;;;;2.00;2.00;;;;;;;;6254469;22;31110;-72
2023/05/12 14:11:43;;;;;;;;;3.00;3.00;;;;;;;;6255966;22;30975;-72
2023/05/12 14:14:09;;;;;;;;;3.00;2.00;;;;;;;;6254201;22;31848;-72
2023/05/12 14:16:34;;;;;;;;;2.00;0.50;;;;;;;;6254631;22;31406;-73
2023/05/12 14:18:59;;;;;;;;;1.25;1.25;;;;;;;;6254776;22;31363;-73
2023/05/12 14:21:25;;;;;;;;;2.00;2.00;;;;;;;;6254906;22;31041;-72
2023/05/12 14:23:50;;;;;;;;;1.75;1.00;;;;;;;;6254752;22;31116;-73
2023/05/12 14:26:16;;;;;;;;;2.00;2.00;;;;;;;;6255004;22;31098;-72
2023/05/12 14:28:41;;;;;;;;;1.75;1.75;;;;;;;;6254800;22;31057;-73
2023/05/12 14:31:06;;;;;;;;;2.00;2.00;;;;;;;;6255008;22;31040;-73
2023/05/12 14:33:31;;;;;;;;;4.00;3.00;;;;;;;;6254775;22;31373;-72
2023/05/12 14:35:57;;;;;;;;;3.00;2.00;;;;;;;;6254004;22;31038;-72
2023/05/12 14:38:22;;;;;;;;;4.00;2.00;;;;;;;;6254479;22;31050;-73
2023/05/12 14:40:48;;;;;;;;;1.50;1.50;;;;;;;;6254101;22;31423;-73
2023/05/12 14:43:13;;;;;;;;;0.75;0.50;;;;;;;;6254563;22;31756;-73
2023/05/12 14:45:38;;;;;;;;;3.00;3.00;;;;;;;;6226425;22;31449;-74
2023/05/12 14:48:04;;;;;;;;;3.25;3.25;;;;;;;;6253688;22;31129;-74
2023/05/12 14:50:29;;;;;;;;;5.00;3.00;;;;;;;;6255503;22;31003;-72
2023/05/12 14:52:54;;;;;;;;;3.00;3.00;;;;;;;;6254664;22;31006;-73
2023/05/12 14:55:20;;;;;;;;;4.50;3.75;;;;;;;;6253953;22;31296;-73
2023/05/12 14:57:46;;;;;;;;;5.25;4.00;;;;;;;;6254138;22;31068;-72
2023/05/12 15:00:12;;;;;;;;;3.75;3.00;;;;;;;;6253766;22;31040;-73
2023/05/12 15:02:38;;;;;;;;;4.25;4.25;;;;;;;;6253068;22;32721;-72
2023/05/12 15:05:03;;;;;;;;;4.00;3.00;;;;;;;;6253556;22;31390;-72
2023/05/12 15:07:28;;;;;;;;;4.00;4.00;;;;;;;;6253418;22;31117;-72
2023/05/12 15:09:54;;;;;;;;;3.00;3.00;;;;;;;;6254824;22;31026;-73
2023/05/12 15:12:19;;;;;;;;;3.00;3.00;;;;;;;;6253744;22;31656;-72
2023/05/12 15:14:44;;;;;;;;;3.00;3.00;;;;;;;;6254850;22;31047;-72
2023/05/12 15:17:10;;;;;;;;;3.00;3.00;;;;;;;;6254620;22;31078;-73
2023/05/12 15:19:35;;;;;;;;;3.00;3.00;;;;;;;;6254873;22;31048;-73
2023/05/12 15:22:00;;;;;;;;;3.75;3.75;;;;;;;;6254471;22;31046;-73
2023/05/12 15:24:25;;;;;;;;;1.50;1.50;;;;;;;;6254305;22;31043;-73
2023/05/12 15:26:51;;;;;;;;;3.67;3.67;;;;;;;;6255405;22;31097;-73
2023/05/12 15:29:16;;;;;;;;;2.00;2.00;;;;;;;;6253931;22;31434;-72
2023/05/12 15:31:41;;;;;;;;;3.00;3.00;;;;;;;;6253833;22;31141;-73
2023/05/12 15:34:06;;;;;;;;;3.00;3.00;;;;;;;;6254590;22;31445;-72
2023/05/12 15:36:32;;;;;;;;;5.50;4.00;;;;;;;;6253658;22;31230;-72
2023/05/12 15:38:57;;;;;;;;;2.00;2.00;;;;;;;;6253350;22;31462;-74
2023/05/12 15:41:22;;;;;;;;;1.00;1.00;;;;;;;;6253870;22;31672;-72
2023/05/12 15:43:47;;;;;;;;;1.00;1.00;;;;;;;;6254676;22;31474;-72
2023/05/12 15:46:13;;;;;;;;;1.50;1.50;;;;;;;;6254113;22;31059;-72
2023/05/12 15:48:38;;;;;;;;;1.00;1.00;;;;;;;;6254837;22;31367;-73
2023/05/12 15:51:03;;;;;;;;;1.00;1.00;;;;;;;;6254896;22;31224;-73
2023/05/12 15:53:29;;;;;;;;;1.00;1.00;;;;;;;;6254343;22;31370;-73
2023/05/12 15:56:00;;;;;;;;;2.00;2.00;;;;;;;;6254105;22;31122;-73
2023/05/12 15:58:26;;;;;;;;;1.00;1.00;;;;;;;;6254673;22;31475;-73
2023/05/12 16:00:52;;;;;;;;;2.00;2.00;;;;;;;;6254227;22;31692;-73
2023/05/12 16:03:17;;;;;;;;;1.75;1.75;;;;;;;;6254119;22;31086;-72
2023/05/12 16:05:42;;;;;;;;;3.50;2.25;;;;;;;;6254669;22;31066;-72
2023/05/12 16:08:07;;;;;;;;;2.25;1.50;;;;;;;;6253215;22;31312;-72
2023/05/12 16:10:33;;;;;;;;;2.00;1.00;;;;;;;;6253299;22;32346;-72
2023/05/12 16:12:58;;;;;;;;;2.00;2.00;;;;;;;;6253357;22;31085;-73
2023/05/12 16:15:23;;;;;;;;;2.25;1.25;;;;;;;;6226894;22;31164;-73
2023/05/12 16:17:48;;;;;;;;;2.00;2.00;;;;;;;;6254498;22;31197;-72
2023/05/12 16:20:14;;;;;;;;;2.75;2.50;;;;;;;;6254244;22;31754;-73
2023/05/12 16:22:39;;;;;;;;;1.00;1.00;;;;;;;;6254544;22;31078;-71
2023/05/12 16:25:04;;;;;;;;;2.75;1.00;;;;;;;;6225554;22;31142;-73
2023/05/12 16:27:32;;;;;;;;;1.25;1.25;;;;;;;;6253685;22;30989;-73
2023/05/12 16:29:57;;;;;;;;;2.00;2.00;;;;;;;;6251698;22;31893;-74
2023/05/12 16:32:22;;;;;;;;;2.00;2.00;;;;;;;;6253994;22;30995;-73
2023/05/12 16:34:47;;;;;;;;;2.75;2.75;;;;;;;;6226517;22;31045;-73
2023/05/12 16:37:13;;;;;;;;;2.50;2.50;;;;;;;;6252232;22;30951;-72
2023/05/12 16:39:38;;;;;;;;;2.25;2.25;;;;;;;;6253143;22;31243;-71
2023/05/12 16:42:03;;;;;;;;;3.00;3.00;;;;;;;;6253177;22;30953;-72
2023/05/12 16:44:28;;;;;;;;;3.00;3.00;;;;;;;;6252552;22;31379;-72
2023/05/12 16:46:53;;;;;;;;;2.50;2.50;;;;;;;;6253297;22;30979;-71
2023/05/12 16:49:19;;;;;;;;;3.00;3.00;;;;;;;;6251761;22;31186;-71
2023/05/12 16:51:44;;;;;;;;;1.25;1.25;;;;;;;;6253991;22;31002;-72
2023/05/12 16:54:10;;;;;;;;;4.50;4.00;;;;;;;;6254131;22;31003;-72
2023/05/12 16:56:35;;;;;;;;;1.25;1.25;;;;;;;;6227387;22;31230;-72
2023/05/12 16:59:00;;;;;;;;;2.50;1.50;;;;;;;;6225737;22;32305;-72
2023/05/12 17:01:25;;;;;;;;;3.00;3.00;;;;;;;;6226185;22;31123;-72
2023/05/12 17:03:50;;;;;;;;;1.75;1.75;;;;;;;;6254137;22;31542;-71
2023/05/12 17:06:16;;;;;;;;;2.75;2.75;;;;;;;;6253873;22;31037;-70
2023/05/12 17:08:41;;;;;;;;;2.00;2.00;;;;;;;;6254298;22;31728;-73
2023/05/12 17:11:07;;;;;;;;;2.00;2.00;;;;;;;;6251763;22;31279;-72
2023/05/12 17:13:34;;;;;;;;;3.00;1.25;;;;;;;;6252757;22;31482;-71
2023/05/12 17:15:59;;;;;;;;;2.00;2.00;;;;;;;;6254793;22;31377;-71
2023/05/12 17:18:24;;;;;;;;;2.00;2.00;;;;;;;;6254592;22;31710;-70
2023/05/12 17:20:50;;;;;;;;;2.50;2.50;;;;;;;;6254083;22;31436;-72
2023/05/12 17:23:15;;;;;;;;;2.75;2.25;;;;;;;;6252035;22;31405;-71
2023/05/12 17:25:40;;;;;;;;;1.75;1.75;;;;;;;;6226101;22;31055;-73
2023/05/12 17:28:05;;;;;;;;;2.25;2.25;;;;;;;;6254342;22;31230;-70
2023/05/12 17:30:31;;;;;;;;;3.00;3.00;;;;;;;;6254080;22;31125;-71
2023/05/12 17:32:57;;;;;;;;;2.00;2.00;;;;;;;;6254980;22;31082;-70
2023/05/12 17:35:22;;;;;;;;;4.00;2.00;;;;;;;;6253922;22;31101;-70
2023/05/12 17:37:50;;;;;;;;;2.75;1.50;;;;;;;;6254389;22;33242;-71
2023/05/12 17:40:18;;;;;;;;;2.00;2.00;;;;;;;;6254539;22;31077;-70
2023/05/12 17:42:44;;;;;;;;;3.75;2.00;;;;;;;;6254443;22;31080;-72
2023/05/12 17:45:09;;;;;;;;;2.00;2.00;;;;;;;;6226984;22;31312;-70
2023/05/12 17:47:35;;;;;;;;;1.50;1.50;;;;;;;;6254279;22;31745;-72
2023/05/12 17:50:00;;;;;;;;;2.00;1.00;;;;;;;;6254689;22;31123;-71
2023/05/12 17:52:26;;;;;;;;;2.25;2.25;;;;;;;;6254703;22;31203;-71
2023/05/12 17:54:57;;;;;;;;;2.00;2.00;;;;;;;;6254349;22;30987;-71
2023/05/12 17:57:22;;;;;;;;;2.00;2.00;;;;;;;;6252340;22;32863;-71
2023/05/12 17:59:47;;;;;;;;;1.50;0.50;;;;;;;;6253609;22;31425;-73
2023/05/12 18:02:13;;;;;;;;;1.50;1.50;;;;;;;;6254476;22;31220;-73
2023/05/12 18:04:38;;;;;;;;;2.00;2.00;;;;;;;;6254145;22;31314;-73
2023/05/12 18:07:04;;;;;;;;;2.00;2.00;;;;;;;;6238105;22;31898;-79
2023/05/12 18:09:29;;;;;;;;;2.75;2.75;;;;;;;;6285498;22;31083;-76
2023/05/12 18:11:54;;;;;;;;;2.25;2.00;;;;;;;;6284988;22;31073;-70
2023/05/12 18:14:20;;;;;;;;;2.75;2.75;;;;;;;;6285256;22;30974;-72
2023/05/12 18:16:45;;;;;;;;;2.00;2.00;;;;;;;;6285542;22;31413;-72
2023/05/12 18:19:11;;;;;;;;;3.00;3.00;;;;;;;;6285225;22;31115;-72
2023/05/12 18:21:36;;;;;;;;;2.25;2.25;;;;;;;;6283431;22;30989;-70
2023/05/12 18:24:01;;;;;;;;;3.00;3.00;;;;;;;;6285699;22;31465;-73
2023/05/12 18:26:27;;;;;;;;;2.00;2.00;;;;;;;;6285167;22;31018;-69
2023/05/12 18:28:52;;;;;;;;;3.00;2.00;;;;;;;;6284705;22;31183;-72
2023/05/12 18:31:18;;;;;;;;;3.00;3.00;;;;;;;;6284965;22;31421;-71
2023/05/12 18:33:47;;;;;;;;;2.25;2.00;;;;;;;;6285385;22;31002;-73
2023/05/12 18:36:12;;;;;;;;;1.75;1.75;;;;;;;;6285315;22;31091;-74
2023/05/12 18:38:37;;;;;;;;;1.00;1.00;;;;;;;;6286866;22;31118;-73
2023/05/12 18:41:03;;;;;;;;;2.25;2.00;;;;;;;;6286301;22;31077;-69
2023/05/12 18:43:28;;;;;;;;;2.75;2.00;;;;;;;;6286749;22;31034;-70
2023/05/12 18:45:53;;;;;;;;;2.00;2.00;;;;;;;;6286724;22;31064;-69
2023/05/12 18:48:18;;;;;;;;;3.00;3.00;;;;;;;;6285834;22;31094;-81
2023/05/12 18:50:43;;;;;;;;;2.00;2.00;;;;;;;;6257154;22;31003;-72
2023/05/12 18:53:09;;;;;;;;;5.75;5.00;;;;;;;;6257397;22;31466;-73
2023/05/12 18:55:34;;;;;;;;;5.75;4.00;;;;;;;;6285122;22;32483;-72
2023/05/12 18:57:59;;;;;;;;;3.50;2.50;;;;;;;;6286154;22;30975;-76
2023/05/12 19:00:26;;;;;;;;;5.00;3.00;;;;;;;;6286198;22;30926;-74
2023/05/12 19:02:51;;;;;;;;;3.00;3.00;;;;;;;;6287001;22;31010;-76
2023/05/12 19:05:17;;;;;;;;;3.25;2.00;;;;;;;;6285919;22;31033;-74
2023/05/12 19:07:42;;;;;;;;;2.75;2.50;;;;;;;;6262562;22;31241;-74
2023/05/12 19:10:09;;;;;;;;;4.00;4.00;;;;;;;;6253226;22;31265;-76
2023/05/12 19:12:34;;;;;;;;;2.75;2.75;;;;;;;;6255831;22;31085;-71
2023/05/12 19:14:59;;;;;;;;;3.00;2.00;;;;;;;;6254817;22;31967;-74
2023/05/12 19:17:25;;;;;;;;;2.00;2.00;;;;;;;;6255872;22;31307;-75
2023/05/12 19:19:50;;;;;;;;;3.00;3.00;;;;;;;;6255574;22;31038;-74
2023/05/12 19:22:15;;;;;;;;;4.00;4.00;;;;;;;;6255149;22;31689;-73
2023/05/12 19:24:41;;;;;;;;;3.00;3.00;;;;;;;;6254841;22;31922;-74
2023/05/12 19:27:06;;;;;;;;;5.75;4.25;;;;;;;;6255208;22;31391;-74
2023/05/12 19:29:31;;;;;;;;;3.25;3.25;;;;;;;;6254745;22;31121;-74
2023/05/12 19:31:57;;;;;;;;;8.75;5.50;;;;;;;;6254397;22;31550;-73
2023/05/12 19:34:22;;;;;;;;;4.00;4.00;;;;;;;;6254999;22;31483;-69
2023/05/12 19:36:47;;;;;;;;;4.00;4.00;;;;;;;;6253434;22;31464;-69